Time;durP1;ratioP1;P1;durP2;ratioP2;P2;SDS_P1;SDS_P2;PMS_P1;PMS_P2;Temp;Humidity;BMP_temperature;BMP_pressure;BME280_temperature;BME280_humidity;BME280_pressure;Samples;Min_cycle;Max_cycle;Signal;HPM_P1;HPM_P2
2021/07/10 02:45:40;;;;;;;5.25;3.33;;;19.00;87.10;;;;;;5544262;24;20051;-73
2021/07/10 02:48:06;;;;;;;4.82;3.83;;;19.00;87.00;;;;;;4764244;30;20043;-73
2021/07/10 02:50:32;;;;;;;7.32;3.85;;;19.10;86.90;;;;;;4764885;30;20039;-73
2021/07/10 02:53:01;;;;;;;5.70;3.78;;;19.10;87.10;;;;;;4781829;30;20300;-74
2021/07/10 02:55:28;;;;;;;7.38;3.70;;;19.00;87.00;;;;;;4766370;30;20035;-73
2021/07/10 02:57:54;;;;;;;4.68;3.85;;;19.00;87.00;;;;;;4766074;30;20205;-74
2021/07/10 03:00:23;;;;;;;4.60;3.80;;;19.00;87.00;;;;;;4782364;30;20034;-73
2021/07/10 03:02:49;;;;;;;5.53;4.57;;;18.90;87.30;;;;;;4751473;30;20103;-73
2021/07/10 03:05:15;;;;;;;4.40;3.33;;;18.80;87.60;;;;;;4782261;30;20032;-73
2021/07/10 03:07:42;;;;;;;4.20;3.80;;;18.80;87.50;;;;;;4751191;30;20068;-73
2021/07/10 03:10:20;;;;;;;4.20;3.80;;;18.80;87.50;;;;;;4781972;30;20067;-73
2021/07/10 03:12:46;;;;;;;5.97;3.60;;;18.80;87.40;;;;;;4776359;30;20038;-73
2021/07/10 03:15:15;;;;;;;11.07;4.53;;;18.70;87.70;;;;;;4759934;30;20311;-73
2021/07/10 03:17:41;;;;;;;4.32;3.72;;;18.70;88.00;;;;;;4760030;30;20035;-73
2021/07/10 03:20:08;;;;;;;10.13;3.35;;;18.70;88.10;;;;;;4765693;30;20085;-73
2021/07/10 03:22:34;;;;;;;3.87;3.50;;;18.60;88.40;;;;;;4782134;30;20098;-72
2021/07/10 03:25:01;;;;;;;5.72;3.40;;;18.50;89.30;;;;;;4781771;30;20302;-73
2021/07/10 03:27:27;;;;;;;6.63;3.45;;;18.50;88.70;;;;;;4781684;30;20034;-73
2021/07/10 03:29:53;;;;;;;5.18;3.13;;;18.50;88.90;;;;;;4781484;30;20059;-73
2021/07/10 03:32:19;;;;;;;4.40;3.00;;;18.50;89.00;;;;;;4765515;30;20046;-73
2021/07/10 03:34:44;;;;;;;5.18;3.20;;;18.50;89.50;;;;;;4781665;30;20050;-73
2021/07/10 03:37:11;;;;;;;5.72;3.00;;;18.40;88.70;;;;;;4765621;30;20085;-73
2021/07/10 03:39:36;;;;;;;3.47;3.05;;;18.50;88.50;;;;;;4765422;30;20028;-73
2021/07/10 03:42:02;;;;;;;8.20;3.33;;;18.50;88.30;;;;;;4781579;30;20096;-73
2021/07/10 03:44:28;;;;;;;7.25;3.65;;;18.60;88.10;;;;;;4781490;30;20019;-73
2021/07/10 03:46:54;;;;;;;4.43;2.97;;;18.60;87.80;;;;;;4753043;30;20142;-73
2021/07/10 03:49:19;;;;;;;3.90;3.35;;;18.60;87.70;;;;;;4752308;30;20032;-73
2021/07/10 03:51:45;;;;;;;2.90;2.67;;;18.60;87.70;;;;;;4748101;30;20060;-73
2021/07/10 03:54:11;;;;;;;2.88;2.63;;;18.70;87.60;;;;;;4761926;30;20398;-73
2021/07/10 03:56:37;;;;;;;4.25;2.50;;;18.70;87.50;;;;;;4752885;30;20305;-73
2021/07/10 03:59:03;;;;;;;3.10;2.40;;;18.70;87.40;;;;;;4761618;30;20036;-73
2021/07/10 04:01:28;;;;;;;3.20;2.90;;;18.90;87.10;;;;;;4757368;30;20044;-73
2021/07/10 04:03:54;;;;;;;4.00;2.80;;;18.90;87.00;;;;;;4761641;30;20039;-73
2021/07/10 04:06:20;;;;;;;8.07;3.03;;;18.90;86.50;;;;;;4756678;30;20031;-73
2021/07/10 04:08:45;;;;;;;4.20;2.75;;;19.00;86.60;;;;;;4750365;30;20037;-73
2021/07/10 04:11:12;;;;;;;4.43;2.90;;;19.10;86.60;;;;;;4735990;30;20111;-73
2021/07/10 04:13:38;;;;;;;7.97;3.58;;;19.10;86.30;;;;;;4755376;30;20044;-73
2021/07/10 04:16:03;;;;;;;7.22;2.92;;;19.10;86.10;;;;;;4730592;30;20086;-73
2021/07/10 04:18:29;;;;;;;3.20;2.90;;;19.10;85.90;;;;;;4755601;30;20047;-73
2021/07/10 04:20:55;;;;;;;8.10;3.45;;;19.10;85.60;;;;;;4757026;30;20060;-73
2021/07/10 04:23:23;;;;;;;3.60;3.25;;;19.20;85.40;;;;;;4762826;30;20274;-73
2021/07/10 04:25:49;;;;;;;3.20;2.72;;;19.20;85.40;;;;;;4758127;30;20029;-73
2021/07/10 04:28:14;;;;;;;5.05;2.95;;;19.20;85.10;;;;;;4730060;30;20422;-73
2021/07/10 04:30:40;;;;;;;4.57;3.00;;;19.30;85.10;;;;;;4744571;30;20037;-73
2021/07/10 04:33:06;;;;;;;4.72;2.67;;;19.40;84.90;;;;;;4745668;30;20036;-73
2021/07/10 04:35:32;;;;;;;6.03;3.17;;;19.40;84.80;;;;;;4743722;30;20137;-73
2021/07/10 04:37:57;;;;;;;6.60;3.45;;;19.50;84.90;;;;;;4744695;30;20024;-73
2021/07/10 04:40:23;;;;;;;3.72;3.40;;;19.50;84.60;;;;;;4752218;30;20024;-73
2021/07/10 04:42:49;;;;;;;4.50;3.35;;;19.70;84.40;;;;;;4745029;30;20024;-73
2021/07/10 04:45:15;;;;;;;3.10;2.80;;;19.70;83.90;;;;;;4749604;30;20068;-73
2021/07/10 04:47:42;;;;;;;3.47;2.97;;;19.70;83.60;;;;;;4779759;30;20027;-73
2021/07/10 04:50:08;;;;;;;4.07;3.22;;;19.80;83.40;;;;;;4775912;30;20031;-73
2021/07/10 04:52:34;;;;;;;3.13;2.78;;;19.80;83.10;;;;;;4780118;30;20028;-74
2021/07/10 04:55:01;;;;;;;3.92;2.92;;;19.80;82.50;;;;;;4763909;30;20047;-73
2021/07/10 04:57:27;;;;;;;4.60;2.37;;;19.90;82.00;;;;;;4765750;30;20068;-74
2021/07/10 04:59:52;;;;;;;3.78;2.53;;;19.90;82.00;;;;;;4764093;30;20245;-73
2021/07/10 05:02:18;;;;;;;3.30;2.55;;;19.90;81.80;;;;;;4779584;30;20027;-73
2021/07/10 05:04:44;;;;;;;3.17;2.20;;;20.00;82.10;;;;;;4778865;30;20254;-73
2021/07/10 05:07:10;;;;;;;5.72;2.53;;;20.10;81.30;;;;;;4763844;30;20039;-73
2021/07/10 05:09:35;;;;;;;3.72;2.47;;;20.10;80.70;;;;;;4779184;30;20032;-73
2021/07/10 05:12:01;;;;;;;3.63;2.40;;;20.10;81.00;;;;;;4780105;30;20031;-74
2021/07/10 05:14:27;;;;;;;10.65;2.85;;;20.20;81.00;;;;;;4779954;30;20061;-73
2021/07/10 05:16:53;;;;;;;3.92;2.35;;;20.20;80.50;;;;;;4779886;30;20035;-73
2021/07/10 05:19:19;;;;;;;2.35;2.00;;;20.20;80.50;;;;;;4763301;30;20035;-73
2021/07/10 05:21:45;;;;;;;3.20;2.13;;;20.30;80.30;;;;;;4764004;30;20050;-73
2021/07/10 05:24:11;;;;;;;2.25;1.92;;;20.40;79.40;;;;;;4763731;30;20027;-73
2021/07/10 05:26:37;;;;;;;3.28;1.58;;;20.50;79.40;;;;;;4779668;30;20027;-73
2021/07/10 05:29:05;;;;;;;5.22;1.58;;;21.10;77.70;;;;;;4763552;30;20047;-74
2021/07/10 05:31:30;;;;;;;2.20;1.60;;;22.00;73.10;;;;;;4773729;30;20327;-73
2021/07/10 05:33:56;;;;;;;3.80;1.58;;;22.90;69.50;;;;;;4745822;30;20032;-73
2021/07/10 05:36:22;;;;;;;3.83;1.52;;;23.60;66.40;;;;;;4744818;30;20032;-74
2021/07/10 05:38:48;;;;;;;1.25;1.15;;;23.90;63.10;;;;;;4765895;30;20047;-74
2021/07/10 05:41:14;;;;;;;5.95;1.52;;;24.30;62.30;;;;;;4763571;30;20226;-74
2021/07/10 05:43:39;;;;;;;1.90;1.70;;;24.70;61.70;;;;;;4779639;30;20046;-74
2021/07/10 05:46:05;;;;;;;2.97;1.45;;;25.30;59.90;;;;;;4779345;30;20055;-74
2021/07/10 05:48:31;;;;;;;1.17;1.08;;;25.30;58.00;;;;;;4779294;30;20031;-74
2021/07/10 05:50:57;;;;;;;2.55;1.58;;;25.40;58.20;;;;;;4763575;30;20193;-74
2021/07/10 05:53:22;;;;;;;1.70;1.20;;;25.40;56.60;;;;;;4763609;30;20028;-74
2021/07/10 05:55:48;;;;;;;1.10;1.00;;;25.00;57.60;;;;;;4779431;30;20028;-74
2021/07/10 05:58:15;;;;;;;6.65;1.58;;;25.10;58.10;;;;;;4778404;30;20102;-72
2021/07/10 06:00:41;;;;;;;1.55;1.30;;;25.20;57.70;;;;;;4747954;30;20096;-71
2021/07/10 06:03:07;;;;;;;1.58;1.10;;;25.10;57.90;;;;;;4778511;30;20095;-74
2021/07/10 06:05:33;;;;;;;3.20;1.17;;;25.00;57.40;;;;;;4763022;30;20327;-73
2021/07/10 06:07:59;;;;;;;1.40;1.30;;;24.80;58.40;;;;;;4778340;30;20024;-73
2021/07/10 06:10:25;;;;;;;1.83;1.20;;;24.50;59.30;;;;;;4778230;30;20024;-72
2021/07/10 06:12:51;;;;;;;1.40;1.17;;;24.50;59.30;;;;;;4747637;30;20047;-74
2021/07/10 06:15:17;;;;;;;2.08;1.15;;;24.60;60.60;;;;;;4762564;30;20291;-73
2021/07/10 06:17:44;;;;;;;3.22;1.20;;;24.70;59.20;;;;;;4763741;30;20035;-72
2021/07/10 06:20:12;;;;;;;2.88;1.10;;;24.80;60.00;;;;;;4778417;30;20196;-74
2021/07/10 06:22:39;;;;;;;1.27;1.15;;;25.10;59.40;;;;;;4778806;30;20023;-74
2021/07/10 06:25:07;;;;;;;3.80;1.20;;;25.20;58.10;;;;;;4765959;30;20031;-74
2021/07/10 06:27:33;;;;;;;4.53;1.23;;;25.10;56.70;;;;;;4766085;30;20091;-74
2021/07/10 06:29:59;;;;;;;1.45;0.98;;;24.90;58.20;;;;;;4782222;30;20346;-73
2021/07/10 06:32:25;;;;;;;1.15;0.90;;;24.80;57.90;;;;;;4765666;30;20339;-74
2021/07/10 06:34:50;;;;;;;1.17;0.70;;;24.80;58.10;;;;;;4765829;30;20063;-74
2021/07/10 06:37:17;;;;;;;1.60;1.00;;;24.80;57.60;;;;;;4750586;30;20094;-74
2021/07/10 06:39:43;;;;;;;;;;;24.90;57.20;;;;;;4766445;30;20044;-74
2021/07/10 06:42:09;;;;;;;3.93;0.87;;;24.90;57.60;;;;;;4766111;30;20321;-73
2021/07/10 06:44:35;;;;;;;2.70;0.80;;;25.00;56.70;;;;;;4782284;30;20031;-74
2021/07/10 06:47:00;;;;;;;2.13;1.13;;;25.00;56.70;;;;;;4781683;30;20052;-74
2021/07/10 06:49:26;;;;;;;3.00;0.80;;;25.00;57.60;;;;;;4781333;30;20114;-74
2021/07/10 06:51:52;;;;;;;2.30;0.90;;;25.20;57.30;;;;;;4781517;30;20056;-74
2021/07/10 06:54:18;;;;;;;0.95;0.68;;;25.20;55.30;;;;;;4782134;30;20030;-74
2021/07/10 06:56:44;;;;;;;1.27;0.60;;;25.10;55.60;;;;;;4782158;30;20035;-74
2021/07/10 06:59:11;;;;;;;1.00;0.90;;;25.00;56.70;;;;;;4781886;30;20054;-75
2021/07/10 07:01:38;;;;;;;1.25;0.95;;;25.20;56.40;;;;;;4749538;30;20032;-75
2021/07/10 07:04:04;;;;;;;1.60;0.80;;;25.30;56.10;;;;;;4782068;30;20276;-75
2021/07/10 07:06:29;;;;;;;3.85;0.63;;;25.40;54.70;;;;;;4750999;30;20040;-75
2021/07/10 07:08:56;;;;;;;0.95;0.57;;;25.30;55.30;;;;;;4781900;30;20258;-75
2021/07/10 07:11:22;;;;;;;1.67;0.70;;;25.40;55.50;;;;;;4782037;30;20369;-76
2021/07/10 07:13:47;;;;;;;3.50;0.80;;;25.50;55.00;;;;;;4766022;30;20039;-75
2021/07/10 07:16:13;;;;;;;0.68;0.60;;;25.60;54.40;;;;;;4765732;30;20043;-75
2021/07/10 07:18:39;;;;;;;2.10;0.80;;;25.70;53.90;;;;;;4769035;30;20043;-76
2021/07/10 07:21:05;;;;;;;15.55;1.40;;;25.50;54.30;;;;;;4765515;30;20389;-76
2021/07/10 07:23:31;;;;;;;2.53;0.80;;;25.50;53.60;;;;;;4765718;30;20149;-74
2021/07/10 07:25:57;;;;;;;2.75;0.95;;;25.40;53.80;;;;;;4753838;30;20213;-73
2021/07/10 07:28:23;;;;;;;2.28;0.73;;;25.60;54.10;;;;;;4781563;30;20038;-73
2021/07/10 07:30:48;;;;;;;2.05;0.80;;;25.70;53.20;;;;;;4778187;30;20316;-72
2021/07/10 07:33:14;;;;;;;1.45;1.00;;;25.70;54.10;;;;;;4766253;30;20028;-73
2021/07/10 07:35:40;;;;;;;22.20;1.58;;;25.70;54.00;;;;;;4764833;30;20377;-74
2021/07/10 07:38:05;;;;;;;3.63;1.00;;;25.70;53.10;;;;;;4780982;30;20082;-74
2021/07/10 07:40:31;;;;;;;2.15;0.88;;;25.50;55.60;;;;;;4781264;30;20059;-73
2021/07/10 07:42:57;;;;;;;1.65;1.02;;;25.40;55.00;;;;;;4781726;30;20031;-73
2021/07/10 07:45:23;;;;;;;1.08;0.90;;;25.50;56.40;;;;;;4780463;30;20100;-74
2021/07/10 07:47:49;;;;;;;3.92;0.82;;;25.80;54.80;;;;;;4767718;30;20395;-74
2021/07/10 07:50:16;;;;;;;4.83;1.07;;;26.20;54.50;;;;;;4781243;30;20050;-75
2021/07/10 07:52:43;;;;;;;4.38;1.23;;;26.50;54.10;;;;;;4760647;30;20111;-75
2021/07/10 07:55:10;;;;;;;4.50;0.80;;;26.50;53.10;;;;;;4764866;30;20288;-75
2021/07/10 07:57:36;;;;;;;7.68;1.27;;;26.60;53.20;;;;;;4749943;30;20061;-76
2021/07/10 08:00:07;;;;;;;6.07;0.98;;;26.60;52.90;;;;;;4765017;30;20071;-76
2021/07/10 08:02:34;;;;;;;33.45;2.90;;;26.50;52.10;;;;;;4749991;30;20059;-75
2021/07/10 08:05:00;;;;;;;10.75;1.38;;;26.20;52.30;;;;;;4780663;30;20028;-75
2021/07/10 08:07:26;;;;;;;7.35;0.93;;;26.30;53.50;;;;;;4762353;30;20304;-74
2021/07/10 08:09:52;;;;;;;2.17;1.48;;;26.50;51.80;;;;;;4781024;30;20331;-75
2021/07/10 08:12:18;;;;;;;2.60;0.93;;;26.40;52.10;;;;;;4764570;30;20028;-75
2021/07/10 08:14:44;;;;;;;0.98;0.70;;;26.50;50.70;;;;;;4780544;30;20027;-76
2021/07/10 08:17:10;;;;;;;2.60;1.02;;;26.40;51.10;;;;;;4780752;30;20041;-75
2021/07/10 08:19:35;;;;;;;2.40;0.85;;;26.30;51.80;;;;;;4764585;30;20039;-75
2021/07/10 08:22:01;;;;;;;4.47;0.95;;;26.50;52.10;;;;;;4780711;30;20028;-75
2021/07/10 08:24:27;;;;;;;3.67;0.55;;;26.50;52.00;;;;;;4764773;30;20258;-75
2021/07/10 08:26:53;;;;;;;4.90;0.88;;;26.40;52.30;;;;;;4774739;30;20045;-75
2021/07/10 08:29:18;;;;;;;6.00;1.15;;;26.50;52.60;;;;;;4778806;30;20086;-76
2021/07/10 08:31:44;;;;;;;1.48;0.82;;;26.70;50.80;;;;;;4778890;30;20036;-75
2021/07/10 08:34:10;;;;;;;4.28;0.75;;;26.50;50.50;;;;;;4780349;30;20311;-75
2021/07/10 08:36:36;;;;;;;3.08;0.80;;;26.30;51.40;;;;;;4764655;30;20032;-74
2021/07/10 08:39:03;;;;;;;2.07;0.97;;;26.30;51.10;;;;;;4758423;30;20223;-75
2021/07/10 08:41:29;;;;;;;1.80;0.75;;;26.50;51.60;;;;;;4763795;30;20024;-75
2021/07/10 08:43:55;;;;;;;12.15;1.35;;;26.60;52.50;;;;;;4780375;30;20255;-75
2021/07/10 08:46:21;;;;;;;13.45;1.45;;;26.60;50.80;;;;;;4779603;30;20043;-75
2021/07/10 08:48:47;;;;;;;3.55;0.75;;;26.60;49.70;;;;;;4749203;30;20110;-75
2021/07/10 08:51:13;;;;;;;0.65;0.50;;;26.60;50.50;;;;;;4763891;30;20062;-75
2021/07/10 08:53:39;;;;;;;2.35;0.75;;;26.50;49.70;;;;;;4763802;30;20226;-74
2021/07/10 08:56:06;;;;;;;2.30;0.85;;;26.50;51.20;;;;;;4780132;30;20058;-75
2021/07/10 08:58:33;;;;;;;2.90;0.63;;;26.70;49.70;;;;;;4780145;30;20216;-75
2021/07/10 09:00:59;;;;;;;0.80;0.50;;;26.60;50.60;;;;;;4764021;30;20324;-76
2021/07/10 09:03:25;;;;;;;7.10;1.17;;;26.80;51.90;;;;;;4779944;30;20039;-74
2021/07/10 09:05:53;;;;;;;1.25;0.47;;;27.20;49.80;;;;;;4763969;30;20110;-75
2021/07/10 09:08:32;;;;;;;1.48;0.60;;;27.40;49.50;;;;;;4763745;30;20062;-74
2021/07/10 09:11:05;;;;;;;2.65;0.90;;;27.50;50.00;;;;;;4779775;30;20228;-74
2021/07/10 09:13:49;;;;;;;4.50;0.50;;;27.50;49.30;;;;;;4763442;30;20102;-75
2021/07/10 09:16:18;;;;;;;3.22;0.55;;;27.50;49.70;;;;;;4765220;30;20031;-74
2021/07/10 09:18:45;;;;;;;3.22;0.68;;;27.70;49.70;;;;;;4768830;30;20165;-74
2021/07/10 09:21:33;;;;;;;2.00;0.60;;;27.90;49.10;;;;;;4763799;30;20031;-74
2021/07/10 09:23:59;;;;;;;1.15;0.65;;;28.10;49.90;;;;;;4763371;30;20044;-74
2021/07/10 09:26:27;;;;;;;1.13;0.45;;;28.30;48.40;;;;;;4778056;30;20019;-74
2021/07/10 09:29:08;;;;;;;2.70;0.80;;;28.40;47.30;;;;;;4778681;30;20044;-74
2021/07/10 09:31:37;;;;;;;0.98;0.63;;;28.70;47.00;;;;;;4779777;30;20077;-73
2021/07/10 09:34:09;;;;;;;3.17;0.93;;;28.70;45.60;;;;;;4763699;30;20040;-74
2021/07/10 09:36:36;;;;;;;1.92;0.75;;;28.70;46.60;;;;;;4763639;30;20053;-74
2021/07/10 09:39:08;;;;;;;6.00;0.73;;;28.80;45.60;;;;;;4748757;30;20043;-74
2021/07/10 09:41:34;;;;;;;0.75;0.63;;;28.60;46.60;;;;;;4763477;30;20031;-73
2021/07/10 09:44:07;;;;;;;1.03;0.50;;;28.60;46.60;;;;;;4763251;30;20030;-74
2021/07/10 09:46:32;;;;;;;1.17;0.47;;;28.70;45.70;;;;;;4762571;30;20044;-74
2021/07/10 09:48:58;;;;;;;1.23;0.60;;;28.60;48.00;;;;;;4748285;30;20208;-74
2021/07/10 09:51:26;;;;;;;3.77;0.80;;;28.60;49.10;;;;;;4763339;30;20035;-75
2021/07/10 09:54:08;;;;;;;1.88;0.70;;;28.70;47.90;;;;;;4763004;30;20196;-74
2021/07/10 09:56:36;;;;;;;13.40;0.70;;;28.90;46.80;;;;;;4773472;30;20047;-74
2021/07/10 09:59:17;;;;;;;3.95;0.43;;;29.10;47.80;;;;;;4762982;30;20295;-75
2021/07/10 10:01:44;;;;;;;2.63;0.50;;;29.20;44.50;;;;;;4763215;30;20036;-75
2021/07/10 10:04:32;;;;;;;1.45;0.52;;;28.90;46.10;;;;;;4778948;30;20020;-75
2021/07/10 10:06:59;;;;;;;0.30;0.30;;;28.80;47.00;;;;;;4778858;30;20216;-74
2021/07/10 10:09:27;;;;;;;2.33;0.60;;;28.80;46.40;;;;;;4763094;30;20311;-75
2021/07/10 10:12:00;;;;;;;0.80;0.50;;;28.90;46.10;;;;;;4778635;30;20040;-74
2021/07/10 10:14:29;;;;;;;0.45;0.45;;;29.20;48.00;;;;;;4763198;30;20085;-75
2021/07/10 10:16:56;;;;;;;1.25;0.52;;;29.40;48.40;;;;;;4778553;30;20043;-75
2021/07/10 10:19:24;;;;;;;3.05;0.50;;;29.60;46.50;;;;;;4762901;30;20102;-74
2021/07/10 10:21:53;;;;;;;0.88;0.50;;;29.70;44.90;;;;;;4748438;30;20028;-74
2021/07/10 10:24:20;;;;;;;0.82;0.40;;;29.60;44.80;;;;;;4778695;30;20050;-74
2021/07/10 10:26:47;;;;;;;1.40;0.50;;;29.30;45.40;;;;;;4778964;30;20061;-75
2021/07/10 10:29:13;;;;;;;;;;;29.40;45.40;;;;;;4748523;30;20039;-75
2021/07/10 10:31:40;;;;;;;;;;;29.30;43.40;;;;;;4763260;30;19909;-75
2021/07/10 10:34:07;;;;;;;4.25;1.63;;;29.30;42.70;;;;;;4762719;30;19991;-74
2021/07/10 10:36:34;;;;;;;1.13;0.40;;;29.40;43.80;;;;;;4778834;30;20032;-75
2021/07/10 10:39:03;;;;;;;0.73;0.60;;;29.60;44.20;;;;;;4778728;30;20031;-75
2021/07/10 10:41:29;;;;;;;0.82;0.50;;;29.60;43.10;;;;;;4778545;30;20059;-75
2021/07/10 10:43:55;;;;;;;;;;;29.60;42.80;;;;;;4748505;30;20250;-75
2021/07/10 10:46:23;;;;;;;1.65;0.77;;;29.50;42.10;;;;;;4778237;30;19918;-75
2021/07/10 10:48:51;;;;;;;2.58;1.10;;;29.70;44.50;;;;;;4762243;30;20095;-74
2021/07/10 10:51:25;;;;;;;1.63;0.50;;;30.00;45.20;;;;;;4778548;30;20032;-75
2021/07/10 10:53:53;;;;;;;2.85;0.57;;;30.40;44.50;;;;;;4747860;30;20036;-75
2021/07/10 10:56:38;;;;;;;2.22;0.57;;;30.60;42.70;;;;;;4775404;30;20212;-76
2021/07/10 10:59:27;;;;;;;1.17;0.50;;;30.70;42.50;;;;;;4778455;30;20035;-76
2021/07/10 11:01:53;;;;;;;1.60;0.90;;;30.80;41.40;;;;;;4774190;30;20043;-74
2021/07/10 11:04:44;;;;;;;0.70;0.60;;;30.80;42.70;;;;;;4778709;30;20028;-74
2021/07/10 11:07:26;;;;;;;0.98;0.50;;;30.80;43.60;;;;;;4763214;30;20039;-73
2021/07/10 11:10:14;;;;;;;3.58;0.45;;;30.60;40.50;;;;;;4776195;30;20070;-73
2021/07/10 11:12:46;;;;;;;1.90;0.77;;;30.40;41.70;;;;;;4765912;30;20127;-72
2021/07/10 11:15:24;;;;;;;2.25;0.60;;;30.60;42.30;;;;;;4779358;30;20039;-73
2021/07/10 11:17:51;;;;;;;5.32;0.77;;;30.60;42.90;;;;;;4764145;30;20043;-74
2021/07/10 11:20:44;;;;;;;2.28;0.40;;;30.60;43.90;;;;;;4781740;30;20083;-72
2021/07/10 11:23:26;;;;;;;0.55;0.45;;;30.50;41.40;;;;;;4709056;30;20070;-76
2021/07/10 11:25:55;;;;;;;2.72;0.30;;;30.50;41.30;;;;;;4709531;30;20068;-77
2021/07/10 11:28:27;;;;;;;2.22;0.50;;;30.60;40.40;;;;;;4710356;30;20333;-77
2021/07/10 11:31:05;;;;;;;0.88;0.50;;;30.60;43.60;;;;;;4708509;30;20042;-77
2021/07/10 11:33:56;;;;;;;1.55;0.40;;;30.60;42.20;;;;;;4700240;30;20042;-78
2021/07/10 11:36:31;;;;;;;1.05;0.40;;;30.80;39.80;;;;;;4700587;30;20064;-78
2021/07/10 11:38:58;;;;;;;0.43;0.40;;;30.80;42.00;;;;;;4713902;30;20071;-77
2021/07/10 11:41:27;;;;;;;;;;;30.90;41.50;;;;;;4695845;30;20360;-78
2021/07/10 11:44:11;;;;;;;3.03;1.55;;;31.00;41.80;;;;;;4695360;30;19911;-78
2021/07/10 11:47:00;;;;;;;1.83;1.20;;;31.20;40.30;;;;;;4712311;30;20049;-77
2021/07/10 11:49:42;;;;;;;0.80;0.43;;;31.40;42.00;;;;;;4691417;30;20050;-78
2021/07/10 11:52:20;;;;;;;1.77;0.40;;;31.50;42.50;;;;;;4692046;30;20267;-77
2021/07/10 11:54:57;;;;;;;0.88;0.47;;;31.50;40.60;;;;;;4692863;30;20225;-77
2021/07/10 11:57:26;;;;;;;1.45;0.40;;;31.40;42.00;;;;;;4691998;30;20210;-77
2021/07/10 11:59:53;;;;;;;1.00;0.32;;;31.20;40.10;;;;;;4708123;30;20117;-77
2021/07/10 12:02:21;;;;;;;1.00;0.38;;;31.10;41.50;;;;;;4737059;30;20036;-77
2021/07/10 12:05:09;;;;;;;2.17;0.32;;;31.10;38.80;;;;;;4714197;30;20035;-76
2021/07/10 12:07:41;;;;;;;0.80;0.50;;;30.90;39.80;;;;;;4739498;30;20033;-76
2021/07/10 12:10:18;;;;;;;0.75;0.40;;;30.70;38.20;;;;;;4728090;30;20032;-77
2021/07/10 12:12:56;;;;;;;0.30;0.30;;;30.60;39.50;;;;;;4726338;30;20090;-77
2021/07/10 12:15:26;;;;;;;1.30;0.55;;;30.60;41.50;;;;;;4725649;30;20121;-77
2021/07/10 12:17:55;;;;;;;0.30;0.30;;;30.70;39.60;;;;;;4729090;30;20153;-76
2021/07/10 12:20:48;;;;;;;1.48;0.32;;;30.80;39.00;;;;;;4727014;30;20047;-77
2021/07/10 12:23:22;;;;;;;0.85;0.30;;;30.90;40.20;;;;;;4728785;30;20340;-77
2021/07/10 12:25:52;;;;;;;0.40;0.30;;;31.10;43.10;;;;;;4749313;30;20060;-78
2021/07/10 12:28:36;;;;;;;1.17;0.55;;;31.40;39.20;;;;;;4780295;30;20093;-77
2021/07/10 12:31:14;;;;;;;0.55;0.50;;;31.30;41.10;;;;;;4749304;30;20512;-76
2021/07/10 12:33:45;;;;;;;0.90;0.35;;;31.40;38.80;;;;;;4779644;30;20032;-77
2021/07/10 12:36:31;;;;;;;1.08;0.60;;;31.30;40.90;;;;;;4761546;30;20085;-77
2021/07/10 12:39:06;;;;;;;2.80;0.30;;;31.50;40.20;;;;;;4764812;30;20390;-77
2021/07/10 12:41:34;;;;;;;0.73;0.28;;;31.60;41.20;;;;;;4780330;30;20039;-77
2021/07/10 12:44:16;;;;;;;4.63;0.50;;;31.50;40.90;;;;;;4779325;30;20039;-77
2021/07/10 12:46:51;;;;;;;0.65;0.35;;;31.60;40.90;;;;;;4778493;30;20051;-78
2021/07/10 12:49:18;;;;;;;1.15;0.40;;;31.70;38.00;;;;;;4763636;30;20115;-77
2021/07/10 12:51:44;;;;;;;0.40;0.32;;;31.60;37.60;;;;;;4764234;30;20092;-77
2021/07/10 12:54:26;;;;;;;0.85;0.50;;;31.60;37.60;;;;;;4764401;30;20039;-76
2021/07/10 12:56:59;;;;;;;1.02;0.35;;;31.70;39.60;;;;;;4780155;30;20073;-77
2021/07/10 12:59:26;;;;;;;0.75;0.43;;;31.60;37.40;;;;;;4773440;30;20282;-77
2021/07/10 13:01:51;;;;;;;2.53;0.43;;;31.60;37.90;;;;;;4775137;30;20031;-77
2021/07/10 13:04:19;;;;;;;1.00;0.53;;;31.70;38.70;;;;;;4764102;30;20028;-77
2021/07/10 13:06:46;;;;;;;1.38;0.30;;;31.70;38.60;;;;;;4763723;30;20031;-77
2021/07/10 13:09:12;;;;;;;1.05;0.45;;;31.70;37.90;;;;;;4779817;30;20082;-77
2021/07/10 13:11:52;;;;;;;4.20;0.40;;;31.90;36.40;;;;;;4780203;30;20107;-77
2021/07/10 13:14:22;;;;;;;2.35;0.40;;;31.90;39.30;;;;;;4764579;30;20111;-77
2021/07/10 13:16:48;;;;;;;0.65;0.30;;;32.00;36.80;;;;;;4777310;30;20035;-78
2021/07/10 13:19:15;;;;;;;0.95;0.50;;;31.90;39.20;;;;;;4773965;30;20042;-77
2021/07/10 13:21:41;;;;;;;2.08;0.45;;;32.00;39.70;;;;;;4777905;30;20027;-77
2021/07/10 13:24:13;;;;;;;0.50;0.50;;;32.30;39.80;;;;;;4778126;30;20085;-77
2021/07/10 13:26:42;;;;;;;2.15;0.40;;;32.50;37.80;;;;;;4778951;30;20355;-77
2021/07/10 13:29:16;;;;;;;0.40;0.40;;;32.40;38.30;;;;;;4778548;30;20036;-77
2021/07/10 13:31:44;;;;;;;2.50;0.47;;;32.50;39.10;;;;;;4762878;30;20027;-77
2021/07/10 13:34:18;;;;;;;0.40;0.30;;;32.60;38.40;;;;;;4763906;30;20054;-79
2021/07/10 13:36:46;;;;;;;6.50;0.60;;;32.60;39.90;;;;;;4764238;30;20020;-77
2021/07/10 13:39:47;;;;;;;1.83;0.65;;;32.70;38.50;;;;;;4750006;30;20479;-75
2021/07/10 13:42:15;;;;;;;1.75;0.60;;;32.60;37.60;;;;;;4692254;30;20054;-75
2021/07/10 13:44:45;;;;;;;0.30;0.30;;;32.40;36.20;;;;;;4703101;30;20052;-75
2021/07/10 13:47:17;;;;;;;3.42;0.40;;;32.40;36.40;;;;;;4701788;30;20080;-75
2021/07/10 13:50:01;;;;;;;1.85;0.65;;;32.40;35.80;;;;;;4703070;30;20044;-76
2021/07/10 13:52:38;;;;;;;2.17;0.38;;;32.20;35.80;;;;;;4707197;30;20085;-75
2021/07/10 13:55:06;;;;;;;2.08;0.43;;;31.90;38.10;;;;;;4684538;30;20033;-76
2021/07/10 13:57:46;;;;;;;1.17;0.50;;;32.10;37.00;;;;;;4706930;30;20137;-76
2021/07/10 14:00:16;;;;;;;2.03;0.65;;;32.10;38.00;;;;;;4706028;30;20163;-75
2021/07/10 14:02:50;;;;;;;3.92;0.50;;;32.30;38.60;;;;;;4692182;30;20057;-76
2021/07/10 14:05:19;;;;;;;435.40;113.75;;;32.30;36.70;;;;;;4701191;30;20340;-75
2021/07/10 14:07:48;;;;;;;134.95;30.95;;;32.30;37.20;;;;;;4701369;30;20162;-75
2021/07/10 14:10:23;;;;;;;9.63;2.90;;;32.20;37.20;;;;;;4675942;30;20225;-76
2021/07/10 14:12:49;;;;;;;7.22;1.85;;;32.30;35.90;;;;;;4691375;30;20068;-74
2021/07/10 14:15:16;;;;;;;3.65;0.50;;;32.20;36.40;;;;;;4691086;30;20187;-75
2021/07/10 14:17:42;;;;;;;5.00;0.50;;;32.30;34.90;;;;;;4740871;30;20035;-74
2021/07/10 14:20:10;;;;;;;1.65;0.75;;;32.30;34.30;;;;;;4760236;30;20047;-75
2021/07/10 14:22:36;;;;;;;0.98;0.52;;;32.40;35.40;;;;;;4777757;30;20157;-76
2021/07/10 14:25:04;;;;;;;1.90;0.70;;;32.60;36.60;;;;;;4776674;30;20036;-76
2021/07/10 14:27:31;;;;;;;1.55;0.60;;;32.60;35.40;;;;;;4759496;30;20088;-75
2021/07/10 14:29:56;;;;;;;1.17;0.50;;;32.50;35.80;;;;;;4776472;30;20027;-75
2021/07/10 14:32:25;;;;;;;1.03;0.67;;;32.60;36.10;;;;;;4778418;30;20042;-75
2021/07/10 14:34:51;;;;;;;0.93;0.63;;;32.50;36.00;;;;;;4778966;30;20062;-75
2021/07/10 14:37:17;;;;;;;0.50;0.40;;;32.50;35.10;;;;;;4777974;30;20200;-75
2021/07/10 14:39:42;;;;;;;1.40;0.43;;;32.40;35.20;;;;;;4762952;30;20071;-75
2021/07/10 14:42:08;;;;;;;1.33;0.40;;;32.50;34.30;;;;;;4749141;30;20032;-75
2021/07/10 14:44:34;;;;;;;5.13;0.63;;;32.30;36.40;;;;;;4782483;30;20211;-75
2021/07/10 14:47:00;;;;;;;0.30;0.30;;;32.50;34.70;;;;;;4768941;30;20067;-74
2021/07/10 14:49:25;;;;;;;1.20;0.33;;;32.40;35.70;;;;;;4763502;30;20036;-74
2021/07/10 14:51:51;;;;;;;0.50;0.33;;;32.50;34.10;;;;;;4763101;30;20059;-76
2021/07/10 14:54:17;;;;;;;35.07;9.43;;;32.50;35.60;;;;;;4762029;30;20086;-75
2021/07/10 14:56:42;;;;;;;0.87;0.77;;;32.50;34.10;;;;;;4761411;30;20043;-74
2021/07/10 14:59:12;;;;;;;0.90;0.50;;;32.40;33.80;;;;;;4764153;30;20129;-75
2021/07/10 15:01:38;;;;;;;3.78;0.98;;;32.40;34.50;;;;;;4763181;30;20387;-75
2021/07/10 15:04:04;;;;;;;0.95;0.60;;;32.50;35.30;;;;;;4762770;30;20051;-75
2021/07/10 15:06:30;;;;;;;0.60;0.53;;;32.50;36.30;;;;;;4764305;30;20036;-75
2021/07/10 15:08:56;;;;;;;0.40;0.40;;;32.60;33.80;;;;;;4764957;30;20032;-76
2021/07/10 15:11:22;;;;;;;1.57;0.70;;;32.40;32.80;;;;;;4763519;30;20290;-74
2021/07/10 15:13:47;;;;;;;0.83;0.40;;;32.20;34.00;;;;;;4762266;30;20040;-75
2021/07/10 15:16:13;;;;;;;5.13;0.60;;;32.20;34.50;;;;;;4762790;30;20032;-75
2021/07/10 15:18:39;;;;;;;1.90;0.50;;;32.30;34.20;;;;;;4762533;30;20115;-75
2021/07/10 15:21:05;;;;;;;2.10;0.63;;;32.30;33.90;;;;;;4763278;30;20031;-75
2021/07/10 15:23:30;;;;;;;1.40;0.70;;;32.40;34.90;;;;;;4761934;30;20324;-75
2021/07/10 15:25:56;;;;;;;0.40;0.40;;;32.50;34.80;;;;;;4749847;30;20032;-75
2021/07/10 15:28:22;;;;;;;2.23;0.53;;;32.50;35.20;;;;;;4763557;30;20028;-75
2021/07/10 15:30:49;;;;;;;1.70;0.60;;;32.60;35.60;;;;;;4762183;30;20028;-75
2021/07/10 15:33:15;;;;;;;1.65;0.47;;;32.60;35.10;;;;;;4762653;30;20020;-76
2021/07/10 15:35:41;;;;;;;;;;;32.60;34.30;;;;;;4763970;30;20043;-75
2021/07/10 15:38:07;;;;;;;1.23;0.65;;;32.50;34.60;;;;;;4762274;30;19977;-75
2021/07/10 15:40:34;;;;;;;2.50;0.90;;;32.40;33.80;;;;;;4763358;30;20051;-74